Time;durP1;ratioP1;P1;durP2;ratioP2;P2;SDS_P1;SDS_P2;PMS_P1;PMS_P2;Temp;Humidity;BMP_temperature;BMP_pressure;BME280_temperature;BME280_humidity;BME280_pressure;Samples;Min_cycle;Max_cycle;Signal;HPM_P1;HPM_P2
2022/05/18 00:00:12;;;;;;;1999.90;999.90;;;21.20;99.90;;;;;;4952791;29;20422;-68
2022/05/18 00:02:39;;;;;;;1999.90;999.90;;;21.30;99.90;;;;;;4952891;29;20909;-69
2022/05/18 00:05:06;;;;;;;1999.90;999.90;;;21.20;99.90;;;;;;4952529;29;20419;-69
2022/05/18 00:07:31;;;;;;;1999.90;999.90;;;21.20;99.90;;;;;;4952467;29;20561;-68
2022/05/18 00:09:57;;;;;;;1999.90;999.90;;;21.10;99.90;;;;;;4952724;28;20897;-68
2022/05/18 00:12:23;;;;;;;1999.90;999.90;;;21.20;99.90;;;;;;4952554;28;20180;-68
2022/05/18 00:14:48;;;;;;;1999.90;999.90;;;21.10;99.90;;;;;;4952448;28;20189;-69
2022/05/18 00:17:14;;;;;;;1999.90;999.90;;;21.10;99.90;;;;;;4952533;29;20206;-68
2022/05/18 00:19:40;;;;;;;1999.90;999.90;;;21.10;99.90;;;;;;4952618;28;20504;-69
2022/05/18 00:22:06;;;;;;;1999.90;999.90;;;21.10;99.90;;;;;;4952619;28;20199;-68
2022/05/18 00:24:31;;;;;;;1999.90;999.90;;;21.10;99.90;;;;;;4952223;28;20182;-68
2022/05/18 00:26:57;;;;;;;1999.90;999.90;;;21.00;99.90;;;;;;4952281;28;20291;-68
2022/05/18 00:29:23;;;;;;;1999.90;999.90;;;20.90;99.90;;;;;;4952480;28;20255;-69
2022/05/18 00:31:49;;;;;;;1999.90;999.90;;;20.90;99.90;;;;;;4952450;28;20197;-69
2022/05/18 00:34:16;;;;;;;1999.90;999.90;;;20.90;99.90;;;;;;4952049;29;20174;-68
2022/05/18 00:36:42;;;;;;;1999.90;999.90;;;20.90;99.90;;;;;;4952197;29;20423;-68
2022/05/18 00:39:08;;;;;;;1999.90;999.90;;;20.90;99.90;;;;;;4952274;28;20432;-69
2022/05/18 00:41:34;;;;;;;1999.90;999.90;;;20.80;99.90;;;;;;4952162;29;20460;-68
2022/05/18 00:44:00;;;;;;;1999.90;999.90;;;20.80;99.90;;;;;;4952034;29;20426;-69
2022/05/18 00:46:26;;;;;;;1999.90;999.90;;;20.70;99.90;;;;;;4951579;28;20526;-69
2022/05/18 00:48:53;;;;;;;1999.90;999.90;;;20.70;99.90;;;;;;4951660;28;20202;-69
2022/05/18 00:51:33;;;;;;;1999.90;999.90;;;20.70;99.90;;;;;;4934892;29;20170;-68
2022/05/18 00:54:04;;;;;;;1999.90;999.90;;;20.70;99.90;;;;;;4951949;29;20389;-69
2022/05/18 00:56:37;;;;;;;1999.90;999.90;;;20.50;99.90;;;;;;4951959;29;20974;-69
2022/05/18 00:59:11;;;;;;;1999.90;999.90;;;20.50;99.90;;;;;;4952073;29;20852;-69
2022/05/18 01:01:37;;;;;;;1999.90;999.90;;;20.50;99.90;;;;;;4951979;29;20410;-68
2022/05/18 01:04:04;;;;;;;1999.90;999.90;;;20.40;99.90;;;;;;4951594;29;20426;-69
2022/05/18 01:06:34;;;;;;;1999.90;999.90;;;20.40;99.90;;;;;;4951594;29;20425;-69
2022/05/18 01:09:22;;;;;;;1999.90;999.90;;;20.30;99.90;;;;;;4951741;29;20461;-68
2022/05/18 01:11:48;;;;;;;1999.90;999.90;;;20.30;99.90;;;;;;4951809;29;20890;-69
2022/05/18 01:14:29;;;;;;;1999.90;999.90;;;20.20;99.90;;;;;;4951516;29;20476;-69
2022/05/18 01:16:54;;;;;;;1999.90;999.90;;;20.20;99.90;;;;;;4951610;29;20420;-70
2022/05/18 01:19:37;;;;;;;1999.90;999.90;;;20.20;99.90;;;;;;4951617;29;20513;-69
2022/05/18 01:22:33;;;;;;;1999.90;999.90;;;20.10;99.90;;;;;;4951717;28;20405;-70
2022/05/18 01:25:27;;;;;;;1999.90;999.90;;;20.10;99.90;;;;;;4951251;29;20507;-70
2022/05/18 01:27:56;;;;;;;1999.90;999.90;;;20.10;99.90;;;;;;4951494;29;20490;-70
2022/05/18 01:30:22;;;;;;;1999.90;999.90;;;20.00;99.90;;;;;;4951495;29;20421;-70
2022/05/18 01:32:50;;;;;;;1999.90;999.90;;;19.90;99.90;;;;;;4951479;29;20407;-70
2022/05/18 01:35:19;;;;;;;1999.90;999.90;;;19.90;99.90;;;;;;4951089;29;20449;-70
2022/05/18 01:37:44;;;;;;;1999.90;999.90;;;19.80;99.90;;;;;;4951265;29;20518;-70
2022/05/18 01:40:33;;;;;;;1999.90;999.90;;;19.70;99.90;;;;;;4951365;28;20494;-70
2022/05/18 01:43:07;;;;;;;1999.90;999.90;;;19.70;99.90;;;;;;4951556;29;20196;-70
2022/05/18 01:45:33;;;;;;;1999.90;999.90;;;19.70;99.90;;;;;;4951096;28;20414;-69
2022/05/18 01:48:10;;;;;;;1999.90;999.90;;;19.70;99.90;;;;;;4951214;28;20556;-70
2022/05/18 01:50:37;;;;;;;1999.90;999.90;;;19.70;99.90;;;;;;4951249;29;20264;-70
2022/05/18 01:53:03;;;;;;;1999.90;999.90;;;19.70;99.90;;;;;;4951257;29;20495;-69
2022/05/18 01:55:29;;;;;;;1999.90;999.90;;;19.60;99.90;;;;;;4950810;29;20414;-70
2022/05/18 01:57:55;;;;;;;1999.90;999.90;;;19.60;99.90;;;;;;4951035;29;20494;-68
2022/05/18 02:00:21;;;;;;;1999.90;999.90;;;19.50;99.90;;;;;;4951061;29;20417;-70
2022/05/18 02:02:47;;;;;;;1999.90;999.90;;;19.50;99.90;;;;;;4951110;28;20177;-70
2022/05/18 02:05:12;;;;;;;1999.90;999.90;;;19.40;99.90;;;;;;4950907;28;20186;-70
2022/05/18 02:07:38;;;;;;;1999.90;999.90;;;19.40;99.90;;;;;;4950805;28;20225;-70
2022/05/18 02:10:04;;;;;;;1999.90;999.90;;;19.40;99.90;;;;;;4950968;29;20195;-70
2022/05/18 02:12:30;;;;;;;1999.90;999.90;;;19.40;99.90;;;;;;4951003;29;20176;-70
2022/05/18 02:14:56;;;;;;;1999.90;999.90;;;19.40;99.90;;;;;;4950642;29;20407;-70
2022/05/18 02:17:23;;;;;;;1999.90;999.90;;;19.30;99.90;;;;;;4950807;29;20888;-71
2022/05/18 02:19:49;;;;;;;1999.90;999.90;;;19.30;99.90;;;;;;4950913;29;20533;-70
2022/05/18 02:22:14;;;;;;;1999.90;999.90;;;19.30;99.90;;;;;;4950912;28;20538;-70
2022/05/18 02:24:40;;;;;;;1999.90;999.90;;;19.20;99.90;;;;;;4950622;28;20181;-70
2022/05/18 02:27:05;;;;;;;1999.90;999.90;;;19.20;99.90;;;;;;4950710;28;20202;-71
2022/05/18 02:29:31;;;;;;;1999.90;999.90;;;19.20;99.90;;;;;;4950770;29;20167;-71
2022/05/18 02:31:57;;;;;;;1999.90;999.90;;;19.20;99.90;;;;;;4950782;28;20190;-70
2022/05/18 02:34:22;;;;;;;1999.90;999.90;;;19.10;99.90;;;;;;4950681;28;20182;-70
2022/05/18 02:36:48;;;;;;;1999.90;999.90;;;19.20;99.90;;;;;;4950690;28;20210;-69
2022/05/18 02:39:14;;;;;;;1999.90;999.90;;;19.20;99.90;;;;;;4950689;29;20172;-70
2022/05/18 02:41:41;;;;;;;1999.90;999.90;;;19.20;99.90;;;;;;4950631;29;20440;-69
2022/05/18 02:44:07;;;;;;;1999.90;999.90;;;19.10;99.90;;;;;;4950309;29;20417;-70
2022/05/18 02:46:32;;;;;;;1999.90;999.90;;;19.10;99.90;;;;;;4950522;29;20488;-69
2022/05/18 02:48:58;;;;;;;1999.90;999.90;;;19.10;99.90;;;;;;4950524;28;20458;-70
2022/05/18 02:51:23;;;;;;;1999.90;999.90;;;19.00;99.90;;;;;;4950570;28;20173;-70
2022/05/18 02:53:49;;;;;;;1999.90;999.90;;;18.90;99.90;;;;;;4950514;28;20172;-70
2022/05/18 02:56:23;;;;;;;1999.90;999.90;;;18.90;99.90;;;;;;4950187;28;20203;-70
2022/05/18 02:58:50;;;;;;;1999.90;999.90;;;18.90;99.90;;;;;;4950443;29;20178;-70
2022/05/18 03:01:19;;;;;;;1999.90;999.90;;;18.90;99.90;;;;;;4950421;29;20419;-70
2022/05/18 03:03:45;;;;;;;1999.90;999.90;;;18.80;99.90;;;;;;4950347;29;20412;-69
2022/05/18 03:06:14;;;;;;;1999.90;999.90;;;18.80;99.90;;;;;;4949921;29;20539;-70
2022/05/18 03:08:41;;;;;;;1999.90;999.90;;;18.80;99.90;;;;;;4950721;29;20528;-69
2022/05/18 03:11:07;;;;;;;1999.90;999.90;;;18.80;99.90;;;;;;4952108;29;20926;-68
2022/05/18 03:13:34;;;;;;;1999.90;999.90;;;18.80;99.90;;;;;;4953521;29;20407;-68
2022/05/18 03:16:00;;;;;;;1999.90;999.90;;;18.70;99.90;;;;;;4953164;29;20423;-68
2022/05/18 03:18:26;;;;;;;1999.90;999.90;;;18.70;99.90;;;;;;4936399;29;20468;-70
2022/05/18 03:23:37;;;;;;;1999.90;999.90;;;18.60;99.90;;;;;;4953668;29;20180;-70
2022/05/18 03:26:13;;;;;;;1999.90;999.90;;;18.60;99.90;;;;;;4952999;29;20433;-70
2022/05/18 03:28:41;;;;;;;1999.90;999.90;;;18.60;99.90;;;;;;4953252;29;20481;-70
2022/05/18 03:31:07;;;;;;;1999.90;999.90;;;18.50;99.90;;;;;;4953232;29;20407;-70
2022/05/18 03:33:34;;;;;;;1999.90;999.90;;;18.50;99.90;;;;;;4953247;29;20407;-69
2022/05/18 03:36:00;;;;;;;1999.90;999.90;;;18.50;99.90;;;;;;4952923;29;20468;-68
2022/05/18 03:38:26;;;;;;;1999.90;999.90;;;18.60;99.90;;;;;;4953152;28;20985;-68
2022/05/18 03:40:52;;;;;;;1999.90;999.90;;;18.60;99.90;;;;;;4953134;29;20414;-68
2022/05/18 03:43:19;;;;;;;1999.90;999.90;;;18.60;99.90;;;;;;4953128;29;20503;-68
2022/05/18 03:45:45;;;;;;;1999.90;999.90;;;18.60;99.90;;;;;;4952783;29;20869;-68
2022/05/18 03:48:13;;;;;;;1999.90;999.90;;;18.60;99.90;;;;;;4952952;29;20450;-68
2022/05/18 03:50:41;;;;;;;1999.90;999.90;;;18.60;99.90;;;;;;4952564;29;20497;-68
2022/05/18 03:53:07;;;;;;;1999.90;999.90;;;18.60;99.90;;;;;;4952939;29;20899;-68
2022/05/18 03:55:34;;;;;;;1999.90;999.90;;;18.50;99.90;;;;;;4952582;28;20437;-68
2022/05/18 03:58:00;;;;;;;1999.90;999.90;;;18.50;99.90;;;;;;4935726;28;20415;-68
2022/05/18 04:00:26;;;;;;;1999.90;999.90;;;18.50;99.90;;;;;;4952907;28;20415;-68
2022/05/18 04:02:52;;;;;;;1999.90;999.90;;;18.50;99.90;;;;;;4953102;28;20190;-68
2022/05/18 04:05:20;;;;;;;1999.90;999.90;;;18.40;99.90;;;;;;4952606;28;20421;-68
2022/05/18 04:07:46;;;;;;;1999.90;999.90;;;18.40;99.90;;;;;;4952531;29;20214;-68
2022/05/18 04:10:12;;;;;;;1999.90;999.90;;;18.50;99.90;;;;;;4952622;29;20413;-68
2022/05/18 04:12:38;;;;;;;1999.90;999.90;;;18.50;99.90;;;;;;4952704;29;20413;-68
2022/05/18 04:15:04;;;;;;;1999.90;999.90;;;18.50;99.90;;;;;;4952445;28;20421;-68
2022/05/18 04:17:30;;;;;;;1999.90;999.90;;;18.60;99.90;;;;;;4952504;29;20601;-68
2022/05/18 04:19:56;;;;;;;1999.90;999.90;;;18.70;99.90;;;;;;4952544;29;20426;-68
2022/05/18 04:22:25;;;;;;;1999.90;999.90;;;18.70;99.90;;;;;;4951368;28;20657;-68
2022/05/18 04:24:51;;;;;;;1999.90;999.90;;;18.70;99.90;;;;;;4952175;29;20417;-68
2022/05/18 04:27:16;;;;;;;1999.90;999.90;;;18.70;99.90;;;;;;4952422;28;20814;-68
2022/05/18 04:29:42;;;;;;;1999.90;999.90;;;18.70;99.90;;;;;;4952425;29;20237;-68
2022/05/18 04:32:08;;;;;;;1999.90;999.90;;;18.70;99.90;;;;;;4952341;28;20455;-68
2022/05/18 04:34:34;;;;;;;1999.90;999.90;;;18.70;99.90;;;;;;4952025;29;20168;-68
2022/05/18 04:37:00;;;;;;;1999.90;999.90;;;18.70;99.90;;;;;;4952209;29;20794;-68
2022/05/18 04:39:26;;;;;;;1999.90;999.90;;;18.70;99.90;;;;;;4952363;28;20411;-68
2022/05/18 04:41:51;;;;;;;1999.90;999.90;;;18.70;99.90;;;;;;4952263;28;20262;-68
2022/05/18 04:44:17;;;;;;;1999.90;999.90;;;18.70;99.90;;;;;;4952089;28;20183;-68
2022/05/18 04:46:43;;;;;;;1999.90;999.90;;;18.80;99.90;;;;;;4952062;28;20205;-68
2022/05/18 04:49:12;;;;;;;1999.90;999.90;;;18.80;99.90;;;;;;4952086;28;20477;-68
2022/05/18 04:51:37;;;;;;;1999.90;999.90;;;18.80;99.90;;;;;;4952030;29;20182;-69
2022/05/18 04:54:03;;;;;;;1999.90;999.90;;;18.90;99.90;;;;;;4951762;28;20416;-69
2022/05/18 04:56:29;;;;;;;1999.90;999.90;;;19.00;99.90;;;;;;4951994;28;20191;-68
2022/05/18 04:58:55;;;;;;;1999.90;999.90;;;19.10;99.90;;;;;;4952017;28;20725;-69
2022/05/18 05:01:20;;;;;;;1999.90;999.90;;;19.20;99.90;;;;;;4951932;29;20178;-69
2022/05/18 05:03:46;;;;;;;1999.90;999.90;;;19.30;99.90;;;;;;4951927;28;20946;-68
2022/05/18 05:06:12;;;;;;;1999.90;999.90;;;19.30;99.90;;;;;;4934345;28;20243;-68
2022/05/18 05:08:38;;;;;;;1999.90;999.90;;;19.40;99.90;;;;;;4951647;28;20224;-68
2022/05/18 05:11:05;;;;;;;1999.90;999.90;;;19.50;99.90;;;;;;4951752;29;20922;-68
2022/05/18 05:13:32;;;;;;;1999.90;999.90;;;19.50;99.90;;;;;;4951867;29;20424;-68
2022/05/18 05:16:00;;;;;;;1999.90;999.90;;;19.60;99.90;;;;;;4951322;29;20412;-68
2022/05/18 05:18:25;;;;;;;1999.90;999.90;;;19.70;99.90;;;;;;4951747;28;20466;-68
2022/05/18 05:20:51;;;;;;;1999.90;999.90;;;19.70;99.90;;;;;;4951610;28;20410;-68
2022/05/18 05:23:16;;;;;;;1999.90;999.90;;;19.80;99.90;;;;;;4952007;28;20179;-69
2022/05/18 05:25:42;;;;;;;1999.90;999.90;;;19.80;99.90;;;;;;4951351;28;20232;-69
2022/05/18 05:28:08;;;;;;;1999.90;999.90;;;20.00;99.90;;;;;;4951711;28;20266;-70
2022/05/18 05:30:34;;;;;;;1999.90;999.90;;;20.10;99.90;;;;;;4951458;29;20176;-69
2022/05/18 05:33:00;;;;;;;1999.90;999.90;;;20.20;99.90;;;;;;4950984;28;20411;-70
2022/05/18 05:35:25;;;;;;;1999.90;999.90;;;20.20;99.90;;;;;;4951093;28;20249;-70
2022/05/18 05:37:51;;;;;;;1999.90;999.90;;;20.40;99.90;;;;;;4951479;28;20187;-68
2022/05/18 05:40:17;;;;;;;1999.90;999.90;;;20.40;99.90;;;;;;4951396;28;20696;-68
2022/05/18 05:42:42;;;;;;;1999.90;999.90;;;20.50;99.90;;;;;;4951401;29;20172;-68
2022/05/18 05:45:09;;;;;;;1999.90;999.90;;;20.60;99.90;;;;;;4950990;28;20661;-68
2022/05/18 05:47:34;;;;;;;1999.90;999.90;;;20.60;99.90;;;;;;4951145;29;20204;-68
2022/05/18 05:50:00;;;;;;;1999.90;999.90;;;20.80;99.90;;;;;;4951209;29;20419;-68
2022/05/18 05:52:26;;;;;;;1999.90;999.90;;;20.90;99.90;;;;;;4951458;28;20195;-68
2022/05/18 05:54:51;;;;;;;1999.90;999.90;;;21.00;99.90;;;;;;4950935;28;20818;-68
2022/05/18 05:57:17;;;;;;;1999.90;999.90;;;21.10;99.90;;;;;;4951111;28;20197;-68
2022/05/18 05:59:44;;;;;;;1999.90;999.90;;;21.10;99.90;;;;;;4951435;28;20245;-69
2022/05/18 06:02:12;;;;;;;1999.90;999.90;;;21.10;99.90;;;;;;4951088;29;20168;-69
2022/05/18 06:04:38;;;;;;;1999.90;999.90;;;21.10;99.90;;;;;;4950766;29;20413;-69
2022/05/18 06:07:04;;;;;;;1999.90;999.90;;;21.10;99.90;;;;;;4950874;29;20855;-68
2022/05/18 06:09:30;;;;;;;1999.90;999.90;;;21.10;99.90;;;;;;4950919;29;20835;-68
2022/05/18 06:11:56;;;;;;;1999.90;999.90;;;21.10;99.90;;;;;;4950943;28;20411;-68
2022/05/18 06:14:21;;;;;;;1999.90;999.90;;;21.30;99.90;;;;;;4950755;28;20257;-68
2022/05/18 06:16:47;;;;;;;1999.90;999.90;;;21.40;99.90;;;;;;4950875;29;20212;-68
2022/05/18 06:19:14;;;;;;;1999.90;999.90;;;21.50;99.90;;;;;;4950899;28;21020;-68
2022/05/18 06:21:41;;;;;;;1999.90;999.90;;;21.60;99.90;;;;;;4950907;29;20391;-69
2022/05/18 06:24:07;;;;;;;1999.90;999.90;;;21.70;99.90;;;;;;4950526;29;20477;-68
2022/05/18 06:26:32;;;;;;;1999.90;999.90;;;21.90;99.90;;;;;;4950772;28;20894;-69
2022/05/18 06:28:58;;;;;;;1999.90;999.90;;;21.90;99.90;;;;;;4950726;28;20439;-68
2022/05/18 06:31:23;;;;;;;1999.90;999.90;;;22.00;99.90;;;;;;4950857;28;20179;-68
2022/05/18 06:33:49;;;;;;;1999.90;999.90;;;22.20;99.90;;;;;;4950682;29;20258;-68
2022/05/18 06:36:15;;;;;;;1999.90;999.90;;;22.20;99.90;;;;;;4950497;28;20205;-67
2022/05/18 06:38:41;;;;;;;1999.90;999.90;;;22.30;99.90;;;;;;4950722;28;20189;-68
2022/05/18 06:41:22;;;;;;;1999.90;999.90;;;22.30;99.90;;;;;;4950611;29;20475;-68
2022/05/18 06:43:55;;;;;;;1999.90;999.90;;;22.40;99.90;;;;;;4950666;28;20381;-67
2022/05/18 06:46:22;;;;;;;1999.90;999.90;;;22.60;99.90;;;;;;4952776;29;20889;-67
2022/05/18 06:48:48;;;;;;;1999.90;999.90;;;22.70;99.90;;;;;;4953775;29;20456;-70
2022/05/18 06:51:19;;;;;;;1999.90;999.90;;;22.70;99.90;;;;;;4953919;29;20391;-70
2022/05/18 06:53:45;;;;;;;1999.90;999.90;;;22.90;99.90;;;;;;4953806;29;20763;-68
2022/05/18 06:56:11;;;;;;;1999.90;999.90;;;23.00;99.90;;;;;;4953481;29;20462;-68
2022/05/18 06:58:37;;;;;;;1999.90;999.90;;;23.10;99.90;;;;;;4953780;28;20381;-68
2022/05/18 07:01:06;;;;;;;1999.90;999.90;;;23.20;99.90;;;;;;4953686;29;20484;-67
2022/05/18 07:03:31;;;;;;;1999.90;999.90;;;23.30;99.90;;;;;;4953700;29;20406;-68
2022/05/18 07:05:57;;;;;;;1999.90;999.90;;;23.40;99.90;;;;;;4953182;28;20547;-68
2022/05/18 07:08:23;;;;;;;1999.90;999.90;;;23.40;99.90;;;;;;4953627;29;20668;-67
2022/05/18 07:10:49;;;;;;;1999.90;999.90;;;23.50;99.90;;;;;;4953555;29;20413;-68
2022/05/18 07:13:16;;;;;;;1999.90;999.90;;;23.60;99.90;;;;;;4953542;28;20377;-67
2022/05/18 07:15:46;;;;;;;1999.90;999.90;;;23.70;99.90;;;;;;4953342;29;20199;-68
2022/05/18 07:18:13;;;;;;;1999.90;999.90;;;23.90;99.90;;;;;;4953484;28;20792;-67
2022/05/18 07:20:38;;;;;;;1999.90;999.90;;;23.90;99.90;;;;;;4953502;29;20385;-67
2022/05/18 07:23:04;;;;;;;1999.90;999.90;;;24.00;99.90;;;;;;4953491;28;20407;-67
2022/05/18 07:25:30;;;;;;;1999.90;999.90;;;24.00;99.90;;;;;;4952904;29;20203;-67
2022/05/18 07:27:56;;;;;;;1999.90;999.90;;;24.00;99.90;;;;;;4953226;28;20478;-68
2022/05/18 07:30:21;;;;;;;1999.90;999.90;;;24.10;99.90;;;;;;4953440;28;20694;-69
2022/05/18 07:32:47;;;;;;;1999.90;999.90;;;24.20;99.90;;;;;;4953343;28;20182;-68
2022/05/18 07:35:12;;;;;;;1999.90;999.90;;;24.30;99.90;;;;;;4953032;28;20220;-67
2022/05/18 07:37:38;;;;;;;1999.90;999.90;;;24.50;99.90;;;;;;4953208;28;20195;-68
2022/05/18 07:40:06;;;;;;;1999.90;999.90;;;24.50;99.90;;;;;;4953147;28;20185;-68
2022/05/18 07:42:32;;;;;;;1999.90;999.90;;;24.60;99.90;;;;;;4953075;29;20633;-68
2022/05/18 07:44:58;;;;;;;1999.90;999.90;;;24.60;99.90;;;;;;4952779;29;20396;-69
2022/05/18 07:47:31;;;;;;;1999.90;999.90;;;24.70;99.90;;;;;;4952973;28;20431;-68
2022/05/18 07:49:57;;;;;;;1999.90;999.90;;;24.70;99.90;;;;;;4936033;28;20187;-68
2022/05/18 07:52:23;;;;;;;1999.90;999.90;;;24.70;99.90;;;;;;4953069;28;20429;-68
2022/05/18 07:54:48;;;;;;;1999.90;999.90;;;24.80;99.90;;;;;;4952668;28;20198;-68
2022/05/18 07:57:15;;;;;;;1999.90;999.90;;;24.80;99.90;;;;;;4952583;28;20205;-68
2022/05/18 07:59:41;;;;;;;1999.90;999.90;;;24.90;99.90;;;;;;4952917;29;20596;-68
2022/05/18 08:02:06;;;;;;;1999.90;999.90;;;25.00;99.90;;;;;;4952774;29;20918;-68
2022/05/18 08:04:32;;;;;;;1999.90;999.90;;;25.10;99.90;;;;;;4952719;28;20385;-69
2022/05/18 08:06:58;;;;;;;1999.90;999.90;;;25.30;99.90;;;;;;4952625;28;20630;-68
2022/05/18 08:09:23;;;;;;;1999.90;999.90;;;25.30;99.90;;;;;;4952666;29;20253;-68
2022/05/18 08:17:19;;;;;;;1999.90;999.90;;;25.50;99.90;;;;;;4952819;29;20416;-70
2022/05/18 08:19:44;;;;;;;1999.90;999.90;;;25.60;99.90;;;;;;4955954;28;20398;-71
2022/05/18 08:22:10;;;;;;;1999.90;999.90;;;25.60;99.90;;;;;;4952457;29;20405;-67
2022/05/18 08:24:36;;;;;;;1999.90;999.90;;;25.80;99.90;;;;;;4952038;29;20177;-68
2022/05/18 08:27:06;;;;;;;1999.90;999.90;;;26.00;99.90;;;;;;4952282;29;20198;-67
2022/05/18 08:29:32;;;;;;;1999.90;999.90;;;26.20;99.90;;;;;;4952410;29;20493;-68
2022/05/18 08:31:58;;;;;;;1999.90;999.90;;;26.20;99.90;;;;;;4952417;28;20446;-68
2022/05/18 08:34:23;;;;;;;1999.90;999.90;;;26.30;99.90;;;;;;4952173;29;20257;-68
2022/05/18 08:36:49;;;;;;;1999.90;999.90;;;26.40;99.90;;;;;;4952389;28;20882;-72
2022/05/18 08:39:15;;;;;;;1999.90;999.90;;;26.50;99.90;;;;;;4952265;29;20193;-70
2022/05/18 08:41:46;;;;;;;1999.90;999.90;;;26.70;99.90;;;;;;4952233;29;20411;-70
2022/05/18 08:44:25;;;;;;;1999.90;999.90;;;26.80;99.90;;;;;;4951869;29;20385;-68
2022/05/18 08:47:27;;;;;;;1999.90;999.90;;;27.00;99.90;;;;;;4952206;28;20431;-71
2022/05/18 08:49:59;;;;;;;1999.90;999.90;;;27.10;99.90;;;;;;4952287;29;20999;-70
2022/05/18 08:52:39;;;;;;;1999.90;999.90;;;27.20;99.90;;;;;;4951969;29;20923;-69
2022/05/18 08:55:23;;;;;;;1999.90;999.90;;;27.20;99.90;;;;;;4951700;29;20431;-71
2022/05/18 08:57:52;;;;;;;1999.90;999.90;;;27.30;99.90;;;;;;4951953;29;20441;-71
2022/05/18 09:00:34;;;;;;;1999.90;999.90;;;27.40;99.90;;;;;;4951950;29;20405;-71
2022/05/18 09:03:28;;;;;;;1999.90;999.90;;;27.40;99.90;;;;;;4951932;29;20449;-71
2022/05/18 09:06:29;;;;;;;1999.90;999.90;;;27.50;99.90;;;;;;4951402;29;20449;-70
2022/05/18 09:11:48;;;;;;;1999.90;999.90;;;27.80;99.90;;;;;;4894409;29;20432;-71
2022/05/18 09:14:17;;;;;;;1999.90;999.90;;;27.90;99.90;;;;;;4894622;29;20750;-71
2022/05/18 09:16:51;;;;;;;1999.90;999.90;;;28.00;99.90;;;;;;4894913;29;20770;-72
2022/05/18 09:19:35;;;;;;;1999.90;999.90;;;28.10;99.90;;;;;;4894960;28;20437;-71
2022/05/18 09:22:13;;;;;;;1999.90;999.90;;;28.30;99.90;;;;;;4894787;29;20405;-72
2022/05/18 09:24:56;;;;;;;1999.90;999.90;;;28.30;99.90;;;;;;4894381;29;20428;-72
2022/05/18 09:27:55;;;;;;;1999.90;999.90;;;28.40;99.90;;;;;;4894847;29;20404;-72
2022/05/18 09:30:52;;;;;;;1999.90;999.90;;;28.50;99.90;;;;;;4894805;28;20799;-72
2022/05/18 09:33:56;;;;;;;1999.90;999.90;;;28.60;99.90;;;;;;4894681;29;20465;-72
2022/05/18 09:36:49;;;;;;;1999.90;999.90;;;28.70;99.90;;;;;;4913680;29;20425;-71
2022/05/18 09:39:18;;;;;;;1999.90;999.90;;;28.90;99.90;;;;;;4894745;29;20445;-70
2022/05/18 09:41:49;;;;;;;1999.90;999.90;;;29.00;98.30;;;;;;4894604;29;20416;-71
2022/05/18 09:44:22;;;;;;;1999.90;999.90;;;29.10;97.60;;;;;;4894244;29;20501;-71
2022/05/18 09:46:48;;;;;;;1999.90;999.90;;;29.10;95.60;;;;;;4894377;29;20500;-71
2022/05/18 09:49:34;;;;;;;1999.90;999.90;;;29.10;94.70;;;;;;4894325;29;21199;-71
2022/05/18 09:52:03;;;;;;;1999.90;999.90;;;29.30;94.20;;;;;;4894483;29;20508;-71
2022/05/18 09:54:30;;;;;;;1999.90;999.90;;;29.50;90.70;;;;;;4894051;29;20437;-71
2022/05/18 09:57:11;;;;;;;1999.90;999.90;;;29.70;83.10;;;;;;4894363;29;20915;-71
2022/05/18 09:59:43;;;;;;;1999.90;999.90;;;29.70;81.40;;;;;;4894360;29;20429;-70
2022/05/18 10:08:02;;;;;;;1999.90;999.90;;;30.00;74.10;;;;;;4911825;29;20522;-69
2022/05/18 10:10:38;;;;;;;1999.90;999.90;;;30.20;77.80;;;;;;4911732;29;20448;-70
2022/05/18 10:13:16;;;;;;;1999.90;999.90;;;30.40;76.30;;;;;;4907864;28;20456;-69
2022/05/18 10:15:48;;;;;;;1999.90;999.90;;;30.60;75.10;;;;;;4891807;29;20409;-68
2022/05/18 10:18:43;;;;;;;1999.90;999.90;;;30.70;72.90;;;;;;4894281;29;20444;-68
2022/05/18 10:21:12;;;;;;;1999.90;999.90;;;30.70;66.80;;;;;;4896520;29;21158;-68
2022/05/18 10:23:56;;;;;;;1999.90;999.90;;;30.80;63.20;;;;;;4900256;28;20424;-68
2022/05/18 10:26:33;;;;;;;1999.90;999.90;;;30.70;58.50;;;;;;4877167;29;20414;-68
2022/05/18 10:29:27;;;;;;;1999.90;999.90;;;30.80;65.90;;;;;;4877867;29;20454;-68
2022/05/18 10:32:11;;;;;;;1999.90;999.90;;;31.00;66.20;;;;;;4899032;28;20436;-68
2022/05/18 10:34:48;;;;;;;1999.90;999.90;;;31.20;58.90;;;;;;4895767;29;20420;-68
2022/05/18 10:37:33;;;;;;;1999.90;999.90;;;31.50;53.80;;;;;;4896344;29;20427;-68
2022/05/18 10:40:01;;;;;;;1999.90;999.90;;;31.50;54.70;;;;;;4896541;29;20464;-67
2022/05/18 10:42:39;;;;;;;1999.90;999.90;;;31.40;51.10;;;;;;4896417;29;20896;-68
2022/05/18 10:45:27;;;;;;;1999.90;999.90;;;31.40;49.30;;;;;;4903348;28;20441;-68
2022/05/18 10:47:56;;;;;;;1999.90;999.90;;;31.60;50.10;;;;;;4895367;29;20465;-68
2022/05/18 10:50:23;;;;;;;1999.90;999.90;;;31.70;50.50;;;;;;4895974;29;20472;-68
2022/05/18 10:52:50;;;;;;;1999.90;999.90;;;31.80;50.10;;;;;;4902636;29;20420;-69
2022/05/18 10:55:20;;;;;;;1999.90;999.90;;;32.00;49.30;;;;;;4894432;29;20422;-69
2022/05/18 10:57:57;;;;;;;1999.90;999.90;;;32.30;45.40;;;;;;4896470;29;20425;-69
2022/05/18 11:00:28;;;;;;;1999.90;999.90;;;32.40;42.30;;;;;;4895290;28;20443;-69
2022/05/18 11:03:06;;;;;;;1999.90;999.90;;;32.40;45.20;;;;;;4897948;29;20421;-69
2022/05/18 11:05:35;;;;;;;1999.90;999.90;;;32.40;40.30;;;;;;4895604;29;20424;-69
2022/05/18 11:08:01;;;;;;;1999.90;999.90;;;32.50;37.80;;;;;;4895294;29;20560;-69
2022/05/18 11:10:56;;;;;;;1999.90;999.90;;;32.60;37.80;;;;;;4895945;29;20545;-69
2022/05/18 11:13:42;;;;;;;1999.90;999.90;;;32.70;32.90;;;;;;4895996;29;20737;-69
2022/05/18 11:16:37;;;;;;;1999.90;999.90;;;32.60;31.70;;;;;;4894835;29;20405;-69
2022/05/18 11:19:27;;;;;;;1999.90;999.90;;;32.90;31.20;;;;;;4897361;29;20429;-70
2022/05/18 11:22:01;;;;;;;1999.90;999.90;;;33.10;33.50;;;;;;4895364;29;20746;-69
2022/05/18 11:24:57;;;;;;;1999.90;999.90;;;33.10;34.00;;;;;;4895104;29;20427;-69
2022/05/18 11:27:56;;;;;;;1999.90;999.90;;;32.90;34.30;;;;;;4895818;29;20441;-69
2022/05/18 11:30:34;;;;;;;1999.90;999.90;;;32.90;33.40;;;;;;4895218;29;20429;-69
2022/05/18 11:33:21;;;;;;;1999.90;999.90;;;33.10;34.10;;;;;;4895598;29;20401;-69
2022/05/18 11:36:20;;;;;;;1999.90;999.90;;;32.90;32.80;;;;;;4894848;29;20421;-69
2022/05/18 11:39:03;;;;;;;1999.90;999.90;;;32.70;33.10;;;;;;4893996;29;20452;-69
2022/05/18 11:41:51;;;;;;;1999.90;999.90;;;32.70;33.80;;;;;;4895751;29;20410;-69
2022/05/18 11:44:49;;;;;;;1999.90;999.90;;;33.10;35.00;;;;;;4929950;28;20426;-69
2022/05/18 11:47:30;;;;;;;1999.90;999.90;;;33.40;32.50;;;;;;4895664;29;20417;-69
2022/05/18 11:50:25;;;;;;;1999.90;999.90;;;33.80;34.70;;;;;;4895352;29;20437;-69
2022/05/18 11:53:16;;;;;;;1999.90;999.90;;;33.90;29.80;;;;;;4911724;28;20426;-69
2022/05/18 11:55:51;;;;;;;1999.90;999.90;;;34.20;30.00;;;;;;4894670;29;20417;-69
2022/05/18 11:58:49;;;;;;;1999.90;999.90;;;34.70;31.10;;;;;;4895636;29;20755;-70
2022/05/18 12:01:27;;;;;;;1999.90;999.90;;;35.10;27.20;;;;;;4895220;29;20413;-70
2022/05/18 12:04:12;;;;;;;1999.90;999.90;;;35.90;26.40;;;;;;4895362;29;20496;-70
2022/05/18 12:06:40;;;;;;;1999.90;999.90;;;36.60;27.20;;;;;;4893791;29;20409;-69
2022/05/18 12:09:12;;;;;;;1999.90;999.90;;;37.20;23.30;;;;;;4894819;29;20835;-70
2022/05/18 12:11:57;;;;;;;1999.90;999.90;;;38.00;22.70;;;;;;4895306;29;20824;-69
2022/05/18 12:14:57;;;;;;;1999.90;999.90;;;38.40;19.50;;;;;;4893940;29;20422;-69
2022/05/18 12:17:31;;;;;;;1999.90;999.90;;;37.90;17.80;;;;;;4894876;29;20401;-69
2022/05/18 12:20:07;;;;;;;1999.90;999.90;;;37.50;17.40;;;;;;4895037;29;20421;-69
2022/05/18 12:22:39;;;;;;;1999.90;999.90;;;37.40;16.60;;;;;;4894596;29;20409;-69
2022/05/18 12:25:08;;;;;;;1999.90;999.90;;;37.90;16.70;;;;;;4894314;29;20405;-69
2022/05/18 12:27:34;;;;;;;1999.90;999.90;;;38.50;15.60;;;;;;4895131;29;20414;-69
2022/05/18 12:30:05;;;;;;;1999.90;999.90;;;39.00;14.60;;;;;;4894602;29;20456;-69
2022/05/18 12:32:31;;;;;;;1999.90;999.90;;;39.80;14.70;;;;;;4895140;29;20417;-69